createdAt,value
2019-04-01T00:00:54.039Z,28.87
2019-04-01T00:03:23.485Z,30.40
2019-04-01T00:05:52.903Z,31.70
2019-04-01T00:08:22.277Z,29.67
2019-04-01T00:10:51.653Z,28.73
2019-04-01T00:13:21.035Z,33.17
2019-04-01T00:15:50.402Z,30.50
2019-04-01T00:18:19.747Z,29.70
2019-04-01T00:20:49.084Z,31.07
2019-04-01T00:23:18.478Z,32.90
2019-04-01T00:25:47.854Z,33.60
2019-04-01T00:28:17.242Z,33.17
2019-04-01T00:30:46.610Z,33.00
2019-04-01T00:33:16.003Z,31.87
2019-04-01T00:35:45.436Z,34.20
2019-04-01T00:38:14.817Z,31.20
2019-04-01T00:40:44.166Z,30.87
2019-04-01T00:43:20.988Z,32.73
2019-04-01T00:45:50.888Z,32.90
2019-04-01T00:48:20.259Z,32.47
2019-04-01T00:50:49.628Z,33.53
2019-04-01T00:53:19.005Z,33.80
2019-04-01T00:55:48.455Z,32.33
2019-04-01T00:58:17.834Z,32.60
2019-04-01T01:00:47.275Z,32.90
2019-04-01T01:03:16.665Z,33.37
2019-04-01T01:05:46.027Z,33.13
2019-04-01T01:08:15.453Z,31.73
2019-04-01T01:10:44.834Z,34.17
2019-04-01T01:13:14.195Z,32.63
2019-04-01T01:15:43.589Z,32.50
2019-04-01T01:18:12.995Z,30.70
2019-04-01T01:20:42.389Z,31.27
2019-04-01T01:23:11.798Z,32.90
2019-04-01T01:25:41.190Z,33.60
2019-04-01T01:28:10.586Z,31.03
2019-04-01T01:30:39.970Z,31.00
2019-04-01T01:33:09.366Z,32.70
2019-04-01T01:35:38.751Z,27.67
2019-04-01T01:38:08.117Z,29.03
2019-04-01T01:40:37.480Z,31.10
2019-04-01T01:43:06.878Z,32.10
2019-04-01T01:45:36.247Z,29.47
2019-04-01T01:48:05.622Z,30.37
2019-04-01T01:50:35.538Z,30.90
2019-04-01T01:53:04.969Z,30.27
2019-04-01T01:55:34.742Z,29.37
2019-04-01T01:58:04.114Z,29.60
2019-04-01T02:00:34.164Z,31.60
2019-04-01T02:03:03.601Z,30.43
2019-04-01T02:05:32.975Z,30.27
2019-04-01T02:08:02.343Z,29.87
2019-04-01T02:10:31.719Z,28.60
2019-04-01T02:13:01.093Z,31.27
2019-04-01T02:15:30.444Z,29.60
2019-04-01T02:17:59.802Z,28.37
2019-04-01T02:20:29.180Z,28.63
2019-04-01T02:22:58.584Z,28.97
2019-04-01T02:25:27.951Z,27.70
2019-04-01T02:27:57.287Z,25.77
2019-04-01T02:30:26.673Z,29.20
2019-04-01T02:32:56.065Z,30.60
2019-04-01T02:35:25.404Z,30.03
2019-04-01T02:37:54.783Z,30.43
2019-04-01T02:40:24.161Z,29.87
2019-04-01T02:42:53.825Z,27.93
2019-04-01T02:45:23.227Z,29.90
2019-04-01T02:47:52.623Z,29.70
2019-04-01T02:50:22.022Z,31.17
2019-04-01T02:52:51.383Z,30.23
2019-04-01T02:55:20.823Z,31.50
2019-04-01T02:57:50.209Z,29.27
2019-04-01T03:00:19.849Z,29.00
2019-04-01T03:02:49.192Z,30.73
2019-04-01T03:05:18.609Z,29.97
2019-04-01T03:07:47.951Z,29.70
2019-04-01T03:10:17.402Z,29.47
2019-04-01T03:12:46.982Z,30.33
2019-04-01T03:15:16.502Z,29.40
2019-04-01T03:17:46.099Z,27.60
2019-04-01T03:20:15.713Z,29.10
2019-04-01T03:22:45.306Z,27.63
2019-04-01T03:25:14.871Z,26.97
2019-04-01T03:27:44.401Z,27.67
2019-04-01T03:30:14.261Z,26.70
2019-04-01T03:32:45.471Z,28.00
2019-04-01T03:35:15.409Z,27.33
2019-04-01T03:37:45.028Z,28.70
2019-04-01T03:40:14.547Z,28.30
2019-04-01T03:42:44.074Z,28.07
2019-04-01T03:45:13.967Z,28.50
2019-04-01T03:47:43.585Z,28.30
2019-04-01T03:50:13.172Z,27.47
2019-04-01T03:52:42.778Z,25.67
2019-04-01T03:55:12.464Z,27.23
2019-04-01T03:57:42.415Z,27.60
2019-04-01T04:00:12.283Z,27.63
2019-04-01T04:02:41.905Z,28.60
2019-04-01T04:05:11.583Z,26.57
2019-04-01T04:07:41.099Z,27.60
2019-04-01T04:10:10.760Z,29.63
2019-04-01T04:12:40.352Z,27.23
2019-04-01T04:15:09.947Z,29.03
2019-04-01T04:17:39.483Z,27.00
2019-04-01T04:20:09.067Z,28.07
2019-04-01T04:22:38.638Z,28.73
2019-04-01T04:25:08.276Z,28.80
2019-04-01T04:27:37.895Z,28.87
2019-04-01T04:30:08.259Z,28.53
2019-04-01T04:32:37.764Z,27.83
2019-04-01T04:35:07.357Z,28.60
2019-04-01T04:37:36.943Z,27.33
2019-04-01T04:40:06.968Z,28.57
2019-04-01T04:42:36.493Z,27.60
2019-04-01T04:45:06.122Z,26.07
2019-04-01T04:47:35.711Z,28.77
2019-04-01T04:50:05.484Z,28.97
2019-04-01T04:52:35.074Z,29.93
2019-04-01T04:55:05.067Z,28.93
2019-04-01T04:57:34.600Z,26.67
2019-04-01T05:00:04.856Z,27.17
2019-04-01T05:02:34.358Z,28.57
2019-04-01T05:05:04.021Z,28.13
2019-04-01T05:07:33.610Z,26.23
2019-04-01T05:10:03.194Z,26.27
2019-04-01T05:12:32.797Z,28.63
2019-04-01T05:15:02.303Z,28.33
2019-04-01T05:17:31.936Z,26.53
2019-04-01T05:20:01.457Z,26.53
2019-04-01T05:22:31.218Z,27.13
2019-04-01T05:25:01.381Z,27.47
2019-04-01T05:27:31.364Z,29.00
2019-04-01T05:30:01.243Z,28.50
2019-04-01T05:32:31.647Z,29.33
2019-04-01T05:35:02.248Z,28.03
2019-04-01T05:37:31.820Z,23.70
2019-04-01T05:40:01.355Z,21.80
2019-04-01T05:42:30.853Z,21.83
2019-04-01T05:45:00.471Z,22.00
2019-04-01T05:47:57.999Z,21.80
2019-04-01T05:50:27.575Z,24.27
2019-04-01T05:52:57.271Z,25.73
2019-04-01T05:55:26.872Z,26.10
2019-04-01T05:57:56.452Z,26.53
2019-04-01T06:00:39.130Z,26.23
2019-04-01T06:03:08.714Z,26.63
2019-04-01T06:05:38.302Z,25.83
2019-04-01T06:08:07.874Z,27.90
2019-04-01T06:10:37.467Z,25.00
2019-04-01T06:13:07.082Z,22.67
2019-04-01T06:15:36.644Z,25.53
2019-04-01T06:18:06.250Z,23.80
2019-04-01T06:20:35.832Z,24.63
2019-04-01T06:23:05.393Z,23.13
2019-04-01T06:25:35.402Z,25.03
2019-04-01T06:28:04.976Z,24.60
2019-04-01T06:30:34.581Z,23.60
2019-04-01T06:33:04.279Z,24.33
2019-04-01T06:35:33.875Z,24.00
2019-04-01T06:38:03.488Z,21.30
2019-04-01T06:40:33.089Z,23.13
2019-04-01T06:43:05.835Z,22.17
2019-04-01T06:45:35.507Z,23.17
2019-04-01T06:48:05.131Z,21.57
2019-04-01T06:50:34.739Z,23.33
2019-04-01T06:53:04.375Z,23.17
2019-04-01T06:55:33.914Z,22.87
2019-04-01T06:58:03.746Z,24.60
2019-04-01T07:00:33.361Z,21.43
2019-04-01T07:03:02.955Z,23.70
2019-04-01T07:05:32.704Z,21.57
2019-04-01T07:08:02.208Z,24.47
2019-04-01T07:10:32.043Z,21.33
2019-04-01T07:13:01.707Z,21.93
2019-04-01T07:15:31.482Z,21.47
2019-04-01T07:18:01.053Z,22.70
2019-04-01T07:20:30.638Z,19.90
2019-04-01T07:23:00.211Z,22.10
2019-04-01T07:25:29.814Z,22.13
2019-04-01T07:27:59.738Z,18.30
2019-04-01T07:30:29.324Z,20.73
2019-04-01T07:32:59.041Z,20.30
2019-04-01T07:35:28.567Z,20.43
2019-04-01T07:37:58.113Z,20.53
2019-04-01T07:40:27.923Z,21.33
2019-04-01T07:42:57.490Z,22.13
2019-04-01T07:45:26.973Z,21.70
2019-04-01T07:47:56.542Z,21.47
2019-04-01T07:50:26.116Z,21.17
2019-04-01T07:52:55.692Z,20.50
2019-04-01T07:55:25.282Z,18.97
2019-04-01T07:57:55.030Z,21.30
2019-04-01T08:00:24.719Z,20.60
2019-04-01T08:02:54.310Z,20.63
2019-04-01T08:05:26.073Z,17.87
2019-04-01T08:07:55.476Z,19.80
2019-04-01T08:10:25.040Z,19.03
2019-04-01T08:12:54.609Z,21.50
2019-04-01T08:15:24.274Z,21.90
2019-04-01T08:17:53.864Z,20.57
2019-04-01T08:20:23.443Z,17.03
2019-04-01T08:22:53.038Z,21.90
2019-04-01T08:25:22.622Z,20.60
2019-04-01T08:27:52.274Z,18.67
2019-04-01T08:30:21.854Z,21.73
2019-04-01T08:32:51.389Z,21.00
2019-04-01T08:35:20.975Z,19.27
2019-04-01T08:37:50.929Z,20.10
2019-04-01T08:40:20.510Z,21.00
2019-04-01T08:42:50.079Z,22.47
2019-04-01T08:45:19.707Z,21.93
2019-04-01T08:47:49.214Z,22.83
2019-04-01T08:50:20.201Z,21.83
2019-04-01T08:53:12.103Z,19.67
2019-04-01T08:55:41.754Z,21.77
2019-04-01T08:58:11.594Z,20.97
2019-04-01T09:00:41.250Z,21.17
2019-04-01T09:03:10.911Z,22.00
2019-04-01T09:05:41.009Z,22.37
2019-04-01T09:08:10.643Z,21.23
2019-04-01T09:10:40.215Z,19.60
2019-04-01T09:13:09.917Z,19.33
2019-04-01T09:15:39.545Z,22.67
2019-04-01T09:18:09.606Z,19.23
2019-04-01T09:20:39.172Z,20.73
2019-04-01T09:23:08.692Z,21.10
2019-04-01T09:25:38.192Z,19.40
2019-04-01T09:28:07.780Z,21.40
2019-04-01T09:30:37.346Z,18.93
2019-04-01T09:33:06.936Z,20.60
2019-04-01T09:35:36.470Z,20.43
2019-04-01T09:38:06.047Z,19.17
2019-04-01T09:40:35.573Z,19.40
2019-04-01T09:43:05.155Z,18.40
2019-04-01T09:45:34.742Z,20.27
2019-04-01T09:48:04.242Z,19.53
2019-04-01T09:50:33.735Z,21.23
2019-04-01T09:53:06.433Z,23.40
2019-04-01T09:55:35.932Z,20.40
2019-04-01T09:58:05.510Z,21.10
2019-04-01T10:00:35.091Z,21.07
2019-04-01T10:03:05.085Z,19.27
2019-04-01T10:05:34.647Z,21.23
2019-04-01T10:08:04.226Z,21.13
2019-04-01T10:10:34.453Z,22.33
2019-04-01T10:13:03.955Z,21.10
2019-04-01T10:15:35.261Z,19.97
2019-04-01T10:18:04.826Z,20.33
2019-04-01T10:20:34.545Z,21.07
2019-04-01T10:23:04.074Z,18.67
2019-04-01T10:25:33.565Z,21.90
2019-04-01T10:28:03.222Z,20.47
2019-04-01T10:30:32.778Z,20.17
2019-04-01T10:33:02.791Z,20.67
2019-04-01T10:35:32.396Z,20.97
2019-04-01T10:38:01.996Z,19.90
2019-04-01T10:40:31.561Z,21.07
2019-04-01T10:43:02.341Z,19.63
2019-04-01T10:45:31.898Z,19.43
2019-04-01T10:48:01.449Z,21.10
2019-04-01T10:50:31.129Z,19.73
2019-04-01T10:53:00.664Z,20.93
2019-04-01T10:55:30.240Z,20.57
2019-04-01T10:57:59.829Z,20.17
2019-04-01T11:00:29.480Z,20.97
2019-04-01T11:02:59.104Z,19.53
2019-04-01T11:05:28.724Z,19.60
2019-04-01T11:07:58.303Z,19.40
2019-04-01T11:10:27.796Z,19.80
2019-04-01T11:12:57.314Z,17.83
2019-04-01T11:15:26.883Z,19.70
2019-04-01T11:17:56.366Z,17.57
2019-04-01T11:20:25.957Z,19.87
2019-04-01T11:22:55.489Z,17.73
2019-04-01T11:25:24.982Z,19.07
2019-04-01T11:27:54.486Z,19.33
2019-04-01T11:30:24.071Z,18.63
2019-04-01T11:32:53.643Z,19.13
2019-04-01T11:35:23.227Z,19.30
2019-04-01T11:37:52.791Z,22.07
2019-04-01T11:40:22.457Z,19.00
2019-04-01T11:42:52.952Z,19.30
2019-04-01T11:45:22.942Z,19.03
2019-04-01T11:47:52.479Z,21.23
2019-04-01T11:50:21.996Z,20.93
2019-04-01T11:52:51.523Z,19.47
2019-04-01T11:55:21.099Z,18.67
2019-04-01T11:57:50.590Z,17.20
2019-04-01T12:00:20.184Z,19.37
2019-04-01T12:02:49.766Z,19.73
2019-04-01T12:05:19.387Z,20.03
2019-04-01T12:07:48.896Z,19.03
2019-04-01T12:10:18.437Z,20.10
2019-04-01T12:12:48.126Z,19.07
2019-04-01T12:15:17.725Z,20.07
2019-04-01T12:17:47.238Z,20.60
2019-04-01T12:20:16.777Z,20.90
2019-04-01T12:22:46.385Z,20.90
2019-04-01T12:25:15.897Z,19.90
2019-04-01T12:27:45.621Z,19.63
2019-04-01T12:30:15.660Z,19.97
2019-04-01T12:32:45.316Z,20.27
2019-04-01T12:35:14.914Z,17.27
2019-04-01T12:37:45.764Z,16.70
2019-04-01T12:40:15.624Z,18.47
2019-04-01T12:42:46.376Z,15.83
2019-04-01T12:45:16.148Z,17.57
2019-04-01T12:47:45.758Z,17.20
2019-04-01T12:50:15.383Z,14.93
2019-04-01T12:52:44.907Z,17.10
2019-04-01T12:55:14.854Z,17.77
2019-04-01T12:57:48.047Z,16.90
2019-04-01T13:00:16.321Z,18.97
2019-04-01T13:02:46.445Z,18.57
2019-04-01T13:05:16.045Z,17.67
2019-04-01T13:07:45.647Z,18.23
2019-04-01T13:10:15.465Z,17.33
2019-04-01T13:12:46.454Z,19.10
2019-04-01T13:15:16.259Z,17.07
2019-04-01T13:17:45.837Z,15.93
2019-04-01T13:20:17.357Z,18.53
2019-04-01T13:22:47.029Z,18.10
2019-04-01T13:25:17.756Z,17.20
2019-04-01T13:27:47.268Z,16.13
2019-04-01T13:30:17.375Z,16.37
2019-04-01T13:32:46.991Z,16.80
2019-04-01T13:35:16.531Z,16.67
2019-04-01T13:37:46.938Z,16.80
2019-04-01T13:40:19.488Z,10.20
2019-04-01T13:42:48.167Z,18.00
2019-04-01T13:45:17.896Z,17.53
2019-04-01T13:47:47.513Z,17.60
2019-04-01T13:50:17.244Z,16.30
2019-04-01T13:52:46.801Z,17.10
2019-04-01T13:55:16.432Z,16.70
2019-04-01T13:57:46.030Z,17.20
2019-04-01T14:00:15.934Z,12.10
2019-04-01T14:02:45.524Z,16.00
2019-04-01T14:05:15.336Z,15.30
2019-04-01T14:07:44.919Z,16.53
2019-04-01T14:10:14.817Z,16.00
2019-04-01T14:12:44.407Z,16.37
2019-04-01T14:15:14.286Z,15.03
2019-04-01T14:17:43.910Z,15.50
2019-04-01T14:20:13.803Z,17.13
2019-04-01T14:22:44.499Z,16.43
2019-04-01T14:25:14.552Z,13.20
2019-04-01T14:27:44.859Z,15.10
2019-04-01T14:30:15.007Z,15.30
2019-04-01T14:32:44.570Z,13.77
2019-04-01T14:35:14.271Z,15.23
2019-04-01T14:37:44.052Z,14.30
2019-04-01T14:40:13.741Z,14.63
2019-04-01T14:42:43.362Z,15.40
2019-04-01T14:45:13.072Z,15.20
2019-04-01T14:47:56.551Z,15.33
2019-04-01T14:50:14.124Z,14.07
2019-04-01T14:52:43.737Z,14.80
2019-04-01T14:55:13.478Z,15.77
2019-04-01T14:57:43.082Z,15.13
2019-04-01T15:00:13.686Z,15.33
2019-04-01T15:02:43.671Z,16.13
2019-04-01T15:05:13.684Z,16.43
2019-04-01T15:07:43.282Z,15.67
2019-04-01T15:10:13.164Z,15.03
2019-04-01T15:12:42.775Z,12.07
2019-04-01T15:15:12.582Z,15.17
2019-04-01T15:17:42.172Z,14.70
2019-04-01T15:20:11.934Z,13.83
2019-04-01T15:22:41.463Z,15.27
2019-04-01T15:25:11.072Z,14.60
2019-04-01T15:27:40.831Z,14.13
2019-04-01T15:30:13.939Z,15.17
2019-04-01T15:32:41.907Z,14.37
2019-04-01T15:35:11.603Z,15.77
2019-04-01T15:37:41.276Z,15.23
2019-04-01T15:40:11.199Z,15.47
2019-04-01T15:42:40.772Z,15.57
2019-04-01T15:45:10.460Z,14.73
2019-04-01T15:47:40.076Z,17.13
2019-04-01T15:50:09.927Z,15.23
2019-04-01T15:52:39.501Z,14.93
2019-04-01T15:55:09.598Z,15.03
2019-04-01T15:57:39.181Z,14.53
2019-04-01T16:00:11.042Z,14.93
2019-04-01T16:02:40.677Z,14.10
2019-04-01T16:05:10.855Z,15.57
2019-04-01T16:07:41.871Z,16.77
2019-04-01T16:10:11.761Z,17.00
2019-04-01T16:12:41.301Z,17.67
2019-04-01T16:15:11.213Z,18.30
2019-04-01T16:17:40.759Z,18.63
2019-04-01T16:20:10.471Z,16.53
2019-04-01T16:22:43.529Z,18.37
2019-04-01T16:25:13.255Z,18.83
2019-04-01T16:27:43.285Z,19.53
2019-04-01T16:30:12.956Z,17.53
2019-04-01T16:32:42.579Z,19.20
2019-04-01T16:35:12.143Z,19.07
2019-04-01T16:37:41.828Z,19.43
2019-04-01T16:40:12.375Z,19.80
2019-04-01T16:42:41.958Z,18.13
2019-04-01T16:45:13.632Z,18.50
2019-04-01T16:47:43.459Z,18.37
2019-04-01T16:50:13.058Z,19.13
2019-04-01T16:52:42.661Z,19.60
2019-04-01T16:55:13.760Z,18.00
2019-04-01T16:57:43.390Z,18.63
2019-04-01T17:00:14.779Z,18.67
2019-04-01T17:02:44.626Z,18.60
2019-04-01T17:05:15.592Z,19.27
2019-04-01T17:07:45.184Z,18.80
2019-04-01T17:10:21.511Z,18.67
2019-04-01T17:12:51.054Z,18.97
2019-04-01T17:15:21.455Z,18.83
2019-04-01T17:17:51.255Z,18.37
2019-04-01T17:20:20.964Z,18.17
2019-04-01T17:22:50.460Z,18.53
2019-04-01T17:25:20.412Z,17.70
2019-04-01T17:27:49.996Z,17.57
2019-04-01T17:30:19.841Z,17.67
2019-04-01T17:32:49.416Z,18.50
2019-04-01T17:35:19.006Z,18.27
2019-04-01T17:37:48.577Z,17.47
2019-04-01T17:40:18.168Z,17.47
2019-04-01T17:42:47.749Z,17.43
2019-04-01T17:45:37.011Z,17.30
2019-04-01T17:48:07.569Z,17.57
2019-04-01T17:50:37.262Z,17.27
2019-04-01T17:53:08.465Z,16.20
2019-04-01T17:55:38.120Z,15.57
2019-04-01T17:58:08.015Z,16.43
2019-04-01T18:00:44.289Z,15.77
2019-04-01T18:03:13.881Z,15.97
2019-04-01T18:05:43.891Z,16.43
2019-04-01T18:08:13.411Z,15.67
2019-04-01T18:10:42.999Z,15.80
2019-04-01T18:13:12.616Z,15.83
2019-04-01T18:15:42.121Z,15.97
2019-04-01T18:18:25.751Z,15.50
2019-04-01T18:20:42.883Z,15.23
2019-04-01T18:23:12.463Z,16.00
2019-04-01T18:25:41.980Z,16.97
2019-04-01T18:28:12.905Z,15.63
2019-04-01T18:30:42.660Z,16.00
2019-04-01T18:33:12.171Z,14.90
2019-04-01T18:35:44.633Z,16.03
2019-04-01T18:38:12.930Z,15.43
2019-04-01T18:40:42.454Z,16.40
2019-04-01T18:43:11.933Z,14.73
2019-04-01T18:45:41.463Z,14.73
2019-04-01T18:48:14.312Z,15.30
2019-04-01T18:50:43.193Z,15.87
2019-04-01T18:53:13.082Z,15.50
2019-04-01T18:55:42.618Z,15.17
2019-04-01T18:58:12.165Z,16.30
2019-04-01T19:00:41.746Z,15.00
2019-04-01T19:03:11.282Z,15.80
2019-04-01T19:05:40.895Z,15.23
2019-04-01T19:08:10.545Z,15.67
2019-04-01T19:10:41.604Z,16.17
2019-04-01T19:13:12.743Z,16.17
2019-04-01T19:15:43.592Z,14.90
2019-04-01T19:18:13.537Z,15.97
2019-04-01T19:20:55.723Z,16.10
2019-04-01T19:23:14.449Z,15.37
2019-04-01T19:25:43.966Z,15.50
2019-04-01T19:28:13.491Z,14.80
2019-04-01T19:30:43.300Z,16.00
2019-04-01T19:33:13.141Z,14.93
2019-04-01T19:35:43.029Z,14.83
2019-04-01T19:38:12.546Z,15.03
2019-04-01T19:40:42.093Z,15.67
2019-04-01T19:43:11.687Z,16.03
2019-04-01T19:45:41.758Z,15.43
2019-04-01T19:48:11.283Z,15.73
2019-04-01T19:50:40.854Z,15.20
2019-04-01T19:53:10.850Z,15.10
2019-04-01T19:55:43.625Z,15.17
2019-04-01T19:58:11.574Z,15.10
2019-04-01T20:00:41.638Z,15.63
2019-04-01T20:03:11.157Z,15.17
2019-04-01T20:05:40.747Z,15.00
2019-04-01T20:08:10.320Z,14.93
2019-04-01T20:10:39.849Z,14.90
2019-04-01T20:13:10.289Z,15.27
2019-04-01T20:15:40.364Z,14.53
2019-04-01T20:18:10.793Z,14.27
2019-04-01T20:20:41.593Z,14.47
2019-04-01T20:23:11.390Z,15.37
2019-04-01T20:25:40.890Z,15.13
2019-04-01T20:28:10.963Z,15.57
2019-04-01T20:30:42.580Z,15.07
2019-04-01T20:33:18.021Z,14.97
2019-04-01T20:35:43.274Z,14.17
2019-04-01T20:38:13.583Z,14.53
2019-04-01T20:40:43.360Z,14.53
2019-04-01T20:43:12.856Z,14.83
2019-04-01T20:45:42.905Z,15.50
2019-04-01T20:48:12.713Z,14.27
2019-04-01T20:50:42.263Z,14.83
2019-04-01T20:53:11.761Z,14.47
2019-04-01T20:55:48.180Z,14.23
2019-04-01T20:58:13.249Z,15.50
2019-04-01T21:00:43.646Z,15.87
2019-04-01T21:03:13.153Z,15.90
2019-04-01T21:05:43.648Z,16.53
2019-04-01T21:08:13.143Z,15.80
2019-04-01T21:10:42.783Z,14.87
2019-04-01T21:13:12.465Z,12.90
2019-04-01T21:15:42.063Z,15.57
2019-04-01T21:18:11.576Z,14.47
2019-04-01T21:20:41.338Z,14.00
2019-04-01T21:23:11.861Z,13.40
2019-04-01T21:25:41.365Z,15.27
2019-04-01T21:28:10.959Z,13.97
2019-04-01T21:30:40.508Z,14.77
2019-04-01T21:33:10.044Z,15.23
2019-04-01T21:35:39.587Z,15.27
2019-04-01T21:38:09.202Z,15.77
2019-04-01T21:40:38.711Z,16.77
2019-04-01T21:43:08.328Z,16.80
2019-04-01T21:45:37.874Z,17.97
2019-04-01T21:48:07.476Z,16.47
2019-04-01T21:50:36.999Z,16.23
2019-04-01T21:53:06.597Z,17.60
2019-04-01T21:55:36.167Z,16.70
2019-04-01T21:58:05.742Z,17.27
2019-04-01T22:00:45.821Z,15.50
2019-04-01T22:03:15.415Z,16.40
2019-04-01T22:05:44.953Z,16.17
2019-04-01T22:08:14.559Z,16.43
2019-04-01T22:10:44.261Z,17.30
2019-04-01T22:13:13.808Z,15.90
2019-04-01T22:15:43.406Z,16.77
2019-04-01T22:18:14.139Z,17.53
2019-04-01T22:20:43.834Z,15.90
2019-04-01T22:23:13.351Z,15.40
2019-04-01T22:25:42.856Z,16.63
2019-04-01T22:28:12.364Z,16.00
2019-04-01T22:30:41.868Z,16.13
2019-04-01T22:33:11.654Z,15.57
2019-04-01T22:35:41.691Z,15.73
2019-04-01T22:38:11.513Z,15.23
2019-04-01T22:40:41.095Z,15.57
2019-04-01T22:43:10.609Z,15.13
2019-04-01T22:45:40.150Z,14.93
2019-04-01T22:48:09.712Z,15.53
2019-04-01T22:50:39.507Z,16.03
2019-04-01T22:53:09.029Z,14.43
2019-04-01T22:55:38.519Z,15.77
2019-04-01T22:58:08.144Z,14.03
2019-04-01T23:00:37.684Z,14.63
2019-04-01T23:03:07.227Z,14.37
2019-04-01T23:05:37.363Z,14.67
2019-04-01T23:08:07.442Z,14.60
2019-04-01T23:10:37.083Z,13.43
2019-04-01T23:13:06.755Z,13.37
2019-04-01T23:15:36.272Z,12.90
2019-04-01T23:18:07.214Z,13.17
2019-04-01T23:20:37.036Z,14.77
2019-04-01T23:23:06.568Z,13.97
2019-04-01T23:25:36.103Z,14.37
2019-04-01T23:28:06.176Z,13.30
2019-04-01T23:30:35.816Z,14.07
2019-04-01T23:33:06.651Z,13.17
2019-04-01T23:35:36.316Z,13.83
2019-04-01T23:38:06.264Z,13.30
2019-04-01T23:40:37.069Z,12.97
2019-04-01T23:43:06.777Z,13.57
2019-04-01T23:45:36.334Z,13.03
2019-04-01T23:48:05.946Z,13.00
2019-04-01T23:50:35.842Z,13.67
2019-04-01T23:53:06.677Z,12.97
2019-04-01T23:55:36.202Z,13.77
2019-04-01T23:58:05.841Z,13.07
